CYSN

St Catharines / Niagara District Airport

St Catharines, , Canada
METAR CYSN 231400Z 09005KT 10SM OVC021 03/01 A3024 RMK SC8 SLP245
Observed Flight Rules
Feb-23 @ 14:00 UTC (31 minutes ago) Marginal Visual Flight Rules
Wind Visibility Clouds
90° at 5 knots 10 miles
  • Overcast at 2,100' AGL
Temperatures Readings
Current 3°C / 37°F
Dewpoint 1°C / 34°F
Humidity 87%
Altimeter 30.24" Hg
Pressure 1024.5 hPa
Elevation 98
METAR CYSN 231400Z 09005KT 10SM OVC021 03/01 A3024 RMK SC8 SLP245
Observed Flight Rules
Feb-23 @ 14:00 UTC
(31 minutes ago)
MVFR
Wind Visibility
90° at 5 knots 10 miles
Clouds
  • Overcast at 2,100' AGL
Temperature Dewpoint
3°C / 37°F 1°C / 34°F
Humidity Altimeter Pressure
87% 30.24" Hg 1024.5 hPa